Ayer, Massachusetts
Current Conditions -  °F | °C
As of 1:52 PM on Saturday 25 Oct 2014 (Local Time) from KFIT Reporting Station
Clear Clear  
Wind Chill: 63°   Ceiling: Unl
Heat Index: 63°   Visibility: 10mi
Dew Point: 38°   Wind: 9mph
Humidity: 40%   Direction: 300°WNW
Pressure: 29.65"   Gusts: NA
Location:  42.56°N, 71.58°W
Report Text: KFIT 251752Z AUTO 30008KT 10SM CLR 17/03 A2965 RMK AO2 SLP042 T01720033 10178 20083 58026
Loading
Personal Weather Stations






























Interactive Weather Map New forecast layout! Learn more

10-Day Weather Forecast

Advertisements
Track Severe Weather on mobile